sensor_id;sensor_type;location;lat;lon;timestamp;P1;durP1;ratioP1;P2;durP2;ratioP2
42296;SDS011;28985;47.456;19.016;2022-07-12T00:01:48;3.97;;;2.63;;
42296;SDS011;28985;47.456;19.016;2022-07-12T00:04:14;3.95;;;2.30;;
42296;SDS011;28985;47.456;19.016;2022-07-12T00:06:41;4.15;;;1.60;;
42296;SDS011;28985;47.456;19.016;2022-07-12T00:09:08;4.88;;;1.73;;
42296;SDS011;28985;47.456;19.016;2022-07-12T00:11:35;1.60;;;1.40;;
42296;SDS011;28985;47.456;19.016;2022-07-12T00:14:02;3.88;;;1.42;;
42296;SDS011;28985;47.456;19.016;2022-07-12T00:16:30;3.70;;;1.30;;
42296;SDS011;28985;47.456;19.016;2022-07-12T00:18:57;1.83;;;1.35;;
42296;SDS011;28985;47.456;19.016;2022-07-12T00:21:24;2.05;;;1.33;;
42296;SDS011;28985;47.456;19.016;2022-07-12T00:23:51;3.47;;;1.35;;
42296;SDS011;28985;47.456;19.016;2022-07-12T00:26:17;5.55;;;1.45;;
42296;SDS011;28985;47.456;19.016;2022-07-12T00:28:45;3.17;;;1.13;;
42296;SDS011;28985;47.456;19.016;2022-07-12T00:31:12;2.78;;;1.40;;
42296;SDS011;28985;47.456;19.016;2022-07-12T00:33:38;5.03;;;1.33;;
42296;SDS011;28985;47.456;19.016;2022-07-12T00:36:05;1.98;;;1.02;;
42296;SDS011;28985;47.456;19.016;2022-07-12T00:38:32;4.07;;;1.10;;
42296;SDS011;28985;47.456;19.016;2022-07-12T00:40:58;3.40;;;1.63;;
42296;SDS011;28985;47.456;19.016;2022-07-12T00:43:25;1.75;;;1.10;;
42296;SDS011;28985;47.456;19.016;2022-07-12T00:45:52;5.18;;;1.00;;
42296;SDS011;28985;47.456;19.016;2022-07-12T00:48:19;4.18;;;0.82;;
42296;SDS011;28985;47.456;19.016;2022-07-12T00:50:46;1.65;;;0.80;;
42296;SDS011;28985;47.456;19.016;2022-07-12T00:53:13;2.55;;;0.65;;
42296;SDS011;28985;47.456;19.016;2022-07-12T00:55:40;1.73;;;0.60;;
42296;SDS011;28985;47.456;19.016;2022-07-12T00:58:07;3.22;;;0.80;;
42296;SDS011;28985;47.456;19.016;2022-07-12T01:00:33;4.07;;;0.68;;
42296;SDS011;28985;47.456;19.016;2022-07-12T01:03:01;1.02;;;0.50;;
42296;SDS011;28985;47.456;19.016;2022-07-12T01:05:29;1.75;;;0.43;;
42296;SDS011;28985;47.456;19.016;2022-07-12T01:07:56;2.40;;;0.75;;
42296;SDS011;28985;47.456;19.016;2022-07-12T01:10:23;3.85;;;0.63;;
42296;SDS011;28985;47.456;19.016;2022-07-12T01:12:50;2.15;;;0.57;;
42296;SDS011;28985;47.456;19.016;2022-07-12T01:15:17;2.28;;;0.63;;
42296;SDS011;28985;47.456;19.016;2022-07-12T01:17:46;3.38;;;0.65;;
42296;SDS011;28985;47.456;19.016;2022-07-12T01:20:18;7.80;;;0.60;;
42296;SDS011;28985;47.456;19.016;2022-07-12T01:22:50;3.00;;;0.50;;
42296;SDS011;28985;47.456;19.016;2022-07-12T01:25:20;1.58;;;0.70;;
42296;SDS011;28985;47.456;19.016;2022-07-12T01:27:46;2.35;;;0.80;;
42296;SDS011;28985;47.456;19.016;2022-07-12T01:30:13;1.50;;;0.50;;
42296;SDS011;28985;47.456;19.016;2022-07-12T01:32:40;2.03;;;0.55;;
42296;SDS011;28985;47.456;19.016;2022-07-12T01:35:07;1.88;;;0.60;;
42296;SDS011;28985;47.456;19.016;2022-07-12T01:37:34;2.40;;;0.65;;
42296;SDS011;28985;47.456;19.016;2022-07-12T01:40:03;2.88;;;2.15;;
42296;SDS011;28985;47.456;19.016;2022-07-12T01:42:31;3.15;;;0.82;;
42296;SDS011;28985;47.456;19.016;2022-07-12T01:44:58;3.35;;;0.50;;
42296;SDS011;28985;47.456;19.016;2022-07-12T01:47:26;4.95;;;1.73;;
42296;SDS011;28985;47.456;19.016;2022-07-12T01:49:54;1.63;;;0.43;;
42296;SDS011;28985;47.456;19.016;2022-07-12T01:52:21;1.90;;;0.50;;
42296;SDS011;28985;47.456;19.016;2022-07-12T01:54:48;2.10;;;0.70;;
42296;SDS011;28985;47.456;19.016;2022-07-12T01:57:15;1.05;;;0.50;;
42296;SDS011;28985;47.456;19.016;2022-07-12T01:59:42;1.10;;;0.60;;
42296;SDS011;28985;47.456;19.016;2022-07-12T02:02:10;1.42;;;0.40;;
42296;SDS011;28985;47.456;19.016;2022-07-12T02:04:37;3.53;;;0.80;;
42296;SDS011;28985;47.456;19.016;2022-07-12T02:07:04;3.97;;;0.63;;
42296;SDS011;28985;47.456;19.016;2022-07-12T02:09:31;4.78;;;0.65;;
42296;SDS011;28985;47.456;19.016;2022-07-12T02:11:58;4.65;;;0.70;;
42296;SDS011;28985;47.456;19.016;2022-07-12T02:14:25;2.88;;;0.90;;
42296;SDS011;28985;47.456;19.016;2022-07-12T02:16:53;1.15;;;0.73;;
42296;SDS011;28985;47.456;19.016;2022-07-12T02:19:19;1.83;;;0.55;;
42296;SDS011;28985;47.456;19.016;2022-07-12T02:21:46;1.52;;;1.02;;
42296;SDS011;28985;47.456;19.016;2022-07-12T02:24:13;2.45;;;0.70;;
42296;SDS011;28985;47.456;19.016;2022-07-12T02:26:39;1.80;;;0.70;;
42296;SDS011;28985;47.456;19.016;2022-07-12T02:29:06;3.53;;;1.05;;
42296;SDS011;28985;47.456;19.016;2022-07-12T02:31:32;2.20;;;0.60;;
42296;SDS011;28985;47.456;19.016;2022-07-12T02:33:59;1.35;;;0.68;;
42296;SDS011;28985;47.456;19.016;2022-07-12T02:36:26;3.13;;;0.65;;
42296;SDS011;28985;47.456;19.016;2022-07-12T02:38:52;1.52;;;0.77;;
42296;SDS011;28985;47.456;19.016;2022-07-12T02:41:19;2.22;;;0.70;;
42296;SDS011;28985;47.456;19.016;2022-07-12T02:43:46;3.05;;;1.02;;
42296;SDS011;28985;47.456;19.016;2022-07-12T02:46:12;2.67;;;1.00;;
42296;SDS011;28985;47.456;19.016;2022-07-12T02:48:40;1.55;;;0.70;;
42296;SDS011;28985;47.456;19.016;2022-07-12T02:51:07;1.83;;;0.50;;
42296;SDS011;28985;47.456;19.016;2022-07-12T02:53:34;5.35;;;0.90;;
42296;SDS011;28985;47.456;19.016;2022-07-12T02:56:07;1.23;;;0.77;;
42296;SDS011;28985;47.456;19.016;2022-07-12T02:58:35;3.42;;;1.00;;
42296;SDS011;28985;47.456;19.016;2022-07-12T03:01:02;3.63;;;0.80;;
42296;SDS011;28985;47.456;19.016;2022-07-12T03:03:29;3.83;;;1.05;;
42296;SDS011;28985;47.456;19.016;2022-07-12T03:05:56;1.98;;;0.47;;
42296;SDS011;28985;47.456;19.016;2022-07-12T03:08:23;3.55;;;0.95;;
42296;SDS011;28985;47.456;19.016;2022-07-12T03:10:50;1.67;;;0.52;;
42296;SDS011;28985;47.456;19.016;2022-07-12T03:13:16;1.35;;;0.82;;
42296;SDS011;28985;47.456;19.016;2022-07-12T03:15:43;0.88;;;0.57;;
42296;SDS011;28985;47.456;19.016;2022-07-12T03:18:12;2.70;;;0.50;;
42296;SDS011;28985;47.456;19.016;2022-07-12T03:20:40;1.80;;;0.73;;
42296;SDS011;28985;47.456;19.016;2022-07-12T03:23:06;2.33;;;0.30;;
42296;SDS011;28985;47.456;19.016;2022-07-12T03:25:34;3.17;;;0.75;;
42296;SDS011;28985;47.456;19.016;2022-07-12T03:28:01;2.03;;;0.60;;
42296;SDS011;28985;47.456;19.016;2022-07-12T03:30:28;1.50;;;0.63;;
42296;SDS011;28985;47.456;19.016;2022-07-12T03:32:55;0.75;;;0.38;;
42296;SDS011;28985;47.456;19.016;2022-07-12T03:35:22;2.53;;;0.90;;
42296;SDS011;28985;47.456;19.016;2022-07-12T03:37:49;1.70;;;0.77;;
42296;SDS011;28985;47.456;19.016;2022-07-12T03:40:18;3.20;;;0.70;;
42296;SDS011;28985;47.456;19.016;2022-07-12T03:42:46;4.75;;;1.85;;
42296;SDS011;28985;47.456;19.016;2022-07-12T03:45:14;2.17;;;0.60;;
42296;SDS011;28985;47.456;19.016;2022-07-12T03:47:41;1.92;;;0.80;;
42296;SDS011;28985;47.456;19.016;2022-07-12T03:50:08;0.90;;;0.68;;
42296;SDS011;28985;47.456;19.016;2022-07-12T03:52:38;1.08;;;0.73;;
42296;SDS011;28985;47.456;19.016;2022-07-12T03:55:06;7.10;;;2.15;;
42296;SDS011;28985;47.456;19.016;2022-07-12T03:57:33;2.28;;;0.60;;
42296;SDS011;28985;47.456;19.016;2022-07-12T04:00:00;3.25;;;0.85;;
42296;SDS011;28985;47.456;19.016;2022-07-12T04:02:28;2.45;;;0.70;;
42296;SDS011;28985;47.456;19.016;2022-07-12T04:04:54;1.10;;;0.60;;
42296;SDS011;28985;47.456;19.016;2022-07-12T04:07:21;0.82;;;0.50;;
42296;SDS011;28985;47.456;19.016;2022-07-12T04:09:48;1.95;;;0.60;;
42296;SDS011;28985;47.456;19.016;2022-07-12T04:12:14;4.68;;;0.57;;
42296;SDS011;28985;47.456;19.016;2022-07-12T04:14:41;3.05;;;0.85;;
42296;SDS011;28985;47.456;19.016;2022-07-12T04:17:07;3.75;;;0.75;;
42296;SDS011;28985;47.456;19.016;2022-07-12T04:19:34;3.05;;;0.50;;
42296;SDS011;28985;47.456;19.016;2022-07-12T04:22:01;2.53;;;0.43;;
42296;SDS011;28985;47.456;19.016;2022-07-12T04:24:27;2.75;;;0.95;;
42296;SDS011;28985;47.456;19.016;2022-07-12T04:26:54;3.00;;;0.50;;
42296;SDS011;28985;47.456;19.016;2022-07-12T04:29:21;2.90;;;0.65;;
42296;SDS011;28985;47.456;19.016;2022-07-12T04:31:48;1.00;;;0.50;;
42296;SDS011;28985;47.456;19.016;2022-07-12T04:34:15;0.63;;;0.52;;
42296;SDS011;28985;47.456;19.016;2022-07-12T04:36:46;4.22;;;0.75;;
42296;SDS011;28985;47.456;19.016;2022-07-12T04:39:14;5.07;;;0.47;;
42296;SDS011;28985;47.456;19.016;2022-07-12T04:41:41;0.75;;;0.35;;
42296;SDS011;28985;47.456;19.016;2022-07-12T04:44:08;1.48;;;0.40;;
42296;SDS011;28985;47.456;19.016;2022-07-12T04:46:34;2.75;;;0.65;;
42296;SDS011;28985;47.456;19.016;2022-07-12T04:49:01;0.90;;;0.50;;
42296;SDS011;28985;47.456;19.016;2022-07-12T04:51:28;1.63;;;0.63;;
42296;SDS011;28985;47.456;19.016;2022-07-12T04:53:54;1.40;;;0.50;;
42296;SDS011;28985;47.456;19.016;2022-07-12T04:56:21;4.88;;;0.47;;
42296;SDS011;28985;47.456;19.016;2022-07-12T04:58:48;2.55;;;0.35;;
42296;SDS011;28985;47.456;19.016;2022-07-12T05:01:15;2.67;;;0.45;;
42296;SDS011;28985;47.456;19.016;2022-07-12T05:03:43;2.95;;;0.30;;
42296;SDS011;28985;47.456;19.016;2022-07-12T05:06:09;0.60;;;0.30;;
42296;SDS011;28985;47.456;19.016;2022-07-12T05:08:36;1.10;;;0.35;;
42296;SDS011;28985;47.456;19.016;2022-07-12T05:11:03;0.40;;;0.30;;
42296;SDS011;28985;47.456;19.016;2022-07-12T05:13:29;1.15;;;0.32;;
42296;SDS011;28985;47.456;19.016;2022-07-12T05:15:56;0.20;;;0.20;;
42296;SDS011;28985;47.456;19.016;2022-07-12T05:18:23;2.47;;;0.30;;
42296;SDS011;28985;47.456;19.016;2022-07-12T05:20:50;2.20;;;0.30;;
42296;SDS011;28985;47.456;19.016;2022-07-12T05:23:18;1.90;;;0.30;;
42296;SDS011;28985;47.456;19.016;2022-07-12T05:25:46;2.60;;;0.30;;
42296;SDS011;28985;47.456;19.016;2022-07-12T05:28:15;3.10;;;0.60;;
42296;SDS011;28985;47.456;19.016;2022-07-12T05:30:42;0.30;;;0.20;;
42296;SDS011;28985;47.456;19.016;2022-07-12T05:33:10;2.53;;;0.47;;
42296;SDS011;28985;47.456;19.016;2022-07-12T05:35:38;0.63;;;0.40;;
42296;SDS011;28985;47.456;19.016;2022-07-12T05:38:05;0.85;;;0.30;;
42296;SDS011;28985;47.456;19.016;2022-07-12T05:40:31;1.17;;;0.32;;
42296;SDS011;28985;47.456;19.016;2022-07-12T05:42:58;1.52;;;0.50;;
42296;SDS011;28985;47.456;19.016;2022-07-12T05:45:25;2.65;;;0.50;;
42296;SDS011;28985;47.456;19.016;2022-07-12T05:47:52;1.25;;;0.45;;
42296;SDS011;28985;47.456;19.016;2022-07-12T05:50:20;3.05;;;0.50;;
42296;SDS011;28985;47.456;19.016;2022-07-12T05:52:46;0.50;;;0.50;;
42296;SDS011;28985;47.456;19.016;2022-07-12T05:55:31;2.05;;;0.85;;
42296;SDS011;28985;47.456;19.016;2022-07-12T05:57:58;1.98;;;0.52;;
42296;SDS011;28985;47.456;19.016;2022-07-12T06:00:24;2.10;;;0.70;;
42296;SDS011;28985;47.456;19.016;2022-07-12T06:02:51;2.30;;;0.70;;
42296;SDS011;28985;47.456;19.016;2022-07-12T06:05:18;2.67;;;0.70;;
42296;SDS011;28985;47.456;19.016;2022-07-12T06:07:45;3.05;;;1.08;;
42296;SDS011;28985;47.456;19.016;2022-07-12T06:10:11;0.90;;;0.50;;
42296;SDS011;28985;47.456;19.016;2022-07-12T06:12:38;1.38;;;0.80;;
42296;SDS011;28985;47.456;19.016;2022-07-12T06:15:05;1.10;;;0.93;;
42296;SDS011;28985;47.456;19.016;2022-07-12T06:17:33;0.95;;;0.47;;
42296;SDS011;28985;47.456;19.016;2022-07-12T06:20:00;0.38;;;0.30;;
42296;SDS011;28985;47.456;19.016;2022-07-12T06:22:28;1.88;;;0.55;;
42296;SDS011;28985;47.456;19.016;2022-07-12T06:24:55;0.80;;;0.50;;
42296;SDS011;28985;47.456;19.016;2022-07-12T06:27:21;0.60;;;0.55;;
42296;SDS011;28985;47.456;19.016;2022-07-12T06:29:48;2.55;;;0.75;;
42296;SDS011;28985;47.456;19.016;2022-07-12T06:32:18;3.92;;;1.20;;
42296;SDS011;28985;47.456;19.016;2022-07-12T06:34:44;2.65;;;0.60;;
42296;SDS011;28985;47.456;19.016;2022-07-12T06:37:11;0.82;;;0.50;;
42296;SDS011;28985;47.456;19.016;2022-07-12T06:39:39;1.67;;;0.60;;
42296;SDS011;28985;47.456;19.016;2022-07-12T06:42:06;2.22;;;0.70;;
42296;SDS011;28985;47.456;19.016;2022-07-12T06:44:33;2.63;;;0.50;;
42296;SDS011;28985;47.456;19.016;2022-07-12T06:47:00;17.77;;;1.48;;
42296;SDS011;28985;47.456;19.016;2022-07-12T06:49:27;1.17;;;0.60;;
42296;SDS011;28985;47.456;19.016;2022-07-12T06:51:54;1.63;;;0.40;;
42296;SDS011;28985;47.456;19.016;2022-07-12T06:54:21;0.85;;;0.60;;
42296;SDS011;28985;47.456;19.016;2022-07-12T06:56:47;4.75;;;0.75;;
42296;SDS011;28985;47.456;19.016;2022-07-12T06:59:14;1.60;;;1.00;;
42296;SDS011;28985;47.456;19.016;2022-07-12T07:01:44;1.35;;;0.85;;
42296;SDS011;28985;47.456;19.016;2022-07-12T07:04:11;1.58;;;0.73;;
42296;SDS011;28985;47.456;19.016;2022-07-12T07:06:38;2.00;;;1.02;;
42296;SDS011;28985;47.456;19.016;2022-07-12T07:09:04;3.22;;;1.17;;
42296;SDS011;28985;47.456;19.016;2022-07-12T07:11:34;2.08;;;1.83;;
42296;SDS011;28985;47.456;19.016;2022-07-12T07:14:02;3.97;;;1.35;;
42296;SDS011;28985;47.456;19.016;2022-07-12T07:16:29;5.28;;;1.50;;
42296;SDS011;28985;47.456;19.016;2022-07-12T07:18:56;1.63;;;1.42;;
42296;SDS011;28985;47.456;19.016;2022-07-12T07:21:23;2.35;;;1.50;;
42296;SDS011;28985;47.456;19.016;2022-07-12T07:23:51;1.65;;;1.55;;
42296;SDS011;28985;47.456;19.016;2022-07-12T07:26:18;4.00;;;1.70;;
42296;SDS011;28985;47.456;19.016;2022-07-12T07:28:45;3.70;;;1.63;;
42296;SDS011;28985;47.456;19.016;2022-07-12T07:31:30;2.15;;;2.10;;
42296;SDS011;28985;47.456;19.016;2022-07-12T07:34:00;1.58;;;1.48;;
42296;SDS011;28985;47.456;19.016;2022-07-12T07:36:27;4.15;;;1.60;;
42296;SDS011;28985;47.456;19.016;2022-07-12T07:38:53;4.45;;;1.60;;
42296;SDS011;28985;47.456;19.016;2022-07-12T07:41:20;1.45;;;1.27;;
42296;SDS011;28985;47.456;19.016;2022-07-12T07:43:46;1.70;;;1.38;;
42296;SDS011;28985;47.456;19.016;2022-07-12T07:46:13;1.90;;;1.80;;
42296;SDS011;28985;47.456;19.016;2022-07-12T07:48:40;8.00;;;2.13;;
42296;SDS011;28985;47.456;19.016;2022-07-12T07:51:07;2.50;;;2.20;;
42296;SDS011;28985;47.456;19.016;2022-07-12T07:53:34;3.63;;;2.15;;
42296;SDS011;28985;47.456;19.016;2022-07-12T07:56:00;2.45;;;1.40;;
42296;SDS011;28985;47.456;19.016;2022-07-12T07:58:27;3.10;;;2.10;;
42296;SDS011;28985;47.456;19.016;2022-07-12T08:00:54;4.43;;;2.20;;
42296;SDS011;28985;47.456;19.016;2022-07-12T08:03:21;2.40;;;2.33;;
42296;SDS011;28985;47.456;19.016;2022-07-12T08:05:48;2.72;;;2.50;;
42296;SDS011;28985;47.456;19.016;2022-07-12T08:08:17;3.08;;;2.97;;
42296;SDS011;28985;47.456;19.016;2022-07-12T08:10:45;3.35;;;2.42;;
42296;SDS011;28985;47.456;19.016;2022-07-12T08:13:11;3.45;;;3.28;;
42296;SDS011;28985;47.456;19.016;2022-07-12T08:15:38;4.25;;;2.60;;
42296;SDS011;28985;47.456;19.016;2022-07-12T08:18:04;3.40;;;2.47;;
42296;SDS011;28985;47.456;19.016;2022-07-12T08:20:32;3.28;;;3.17;;
42296;SDS011;28985;47.456;19.016;2022-07-12T08:23:14;3.42;;;2.65;;
42296;SDS011;28985;47.456;19.016;2022-07-12T08:25:41;4.30;;;4.05;;
42296;SDS011;28985;47.456;19.016;2022-07-12T08:28:08;4.50;;;4.32;;
42296;SDS011;28985;47.456;19.016;2022-07-12T08:30:35;2.78;;;2.58;;
42296;SDS011;28985;47.456;19.016;2022-07-12T08:33:10;4.28;;;3.08;;
42296;SDS011;28985;47.456;19.016;2022-07-12T08:35:36;2.47;;;2.38;;
42296;SDS011;28985;47.456;19.016;2022-07-12T08:38:03;2.67;;;2.58;;
42296;SDS011;28985;47.456;19.016;2022-07-12T08:40:30;3.08;;;2.20;;
42296;SDS011;28985;47.456;19.016;2022-07-12T08:42:57;4.95;;;2.20;;
42296;SDS011;28985;47.456;19.016;2022-07-12T08:45:23;3.25;;;3.05;;
42296;SDS011;28985;47.456;19.016;2022-07-12T08:47:50;2.88;;;2.67;;
42296;SDS011;28985;47.456;19.016;2022-07-12T08:50:18;3.67;;;3.33;;
42296;SDS011;28985;47.456;19.016;2022-07-12T08:52:49;2.90;;;2.70;;
42296;SDS011;28985;47.456;19.016;2022-07-12T08:55:23;3.38;;;2.85;;
42296;SDS011;28985;47.456;19.016;2022-07-12T08:58:01;3.28;;;3.08;;
42296;SDS011;28985;47.456;19.016;2022-07-12T09:00:30;3.45;;;2.83;;
42296;SDS011;28985;47.456;19.016;2022-07-12T09:02:59;4.72;;;3.13;;
42296;SDS011;28985;47.456;19.016;2022-07-12T09:05:28;3.85;;;3.65;;
42296;SDS011;28985;47.456;19.016;2022-07-12T09:08:06;3.67;;;3.42;;
42296;SDS011;28985;47.456;19.016;2022-07-12T09:10:51;3.47;;;2.60;;
42296;SDS011;28985;47.456;19.016;2022-07-12T09:13:46;2.97;;;2.88;;
42296;SDS011;28985;47.456;19.016;2022-07-12T09:16:21;2.95;;;2.70;;
42296;SDS011;28985;47.456;19.016;2022-07-12T09:18:49;3.00;;;2.80;;
42296;SDS011;28985;47.456;19.016;2022-07-12T09:21:24;2.45;;;2.35;;
42296;SDS011;28985;47.456;19.016;2022-07-12T09:23:53;2.85;;;2.75;;
42296;SDS011;28985;47.456;19.016;2022-07-12T09:26:21;3.40;;;3.22;;
42296;SDS011;28985;47.456;19.016;2022-07-12T09:28:55;2.80;;;2.65;;
42296;SDS011;28985;47.456;19.016;2022-07-12T09:31:41;3.70;;;3.40;;
42296;SDS011;28985;47.456;19.016;2022-07-12T09:34:28;4.20;;;3.97;;
42296;SDS011;28985;47.456;19.016;2022-07-12T09:37:14;4.85;;;4.57;;
42296;SDS011;28985;47.456;19.016;2022-07-12T09:39:41;4.35;;;3.90;;
42296;SDS011;28985;47.456;19.016;2022-07-12T09:42:08;5.80;;;5.13;;
42296;SDS011;28985;47.456;19.016;2022-07-12T09:44:36;6.97;;;6.78;;
42296;SDS011;28985;47.456;19.016;2022-07-12T09:47:03;7.13;;;6.80;;
42296;SDS011;28985;47.456;19.016;2022-07-12T09:49:35;7.55;;;7.05;;
42296;SDS011;28985;47.456;19.016;2022-07-12T09:52:04;7.80;;;7.38;;
42296;SDS011;28985;47.456;19.016;2022-07-12T09:54:35;7.70;;;7.40;;
42296;SDS011;28985;47.456;19.016;2022-07-12T09:57:08;10.07;;;9.57;;
42296;SDS011;28985;47.456;19.016;2022-07-12T09:59:41;9.40;;;8.90;;
42296;SDS011;28985;47.456;19.016;2022-07-12T10:02:08;7.35;;;6.95;;
42296;SDS011;28985;47.456;19.016;2022-07-12T10:04:41;7.97;;;7.57;;
42296;SDS011;28985;47.456;19.016;2022-07-12T10:07:08;9.20;;;8.80;;
42296;SDS011;28985;47.456;19.016;2022-07-12T10:09:40;11.77;;;10.93;;
42296;SDS011;28985;47.456;19.016;2022-07-12T10:12:08;11.23;;;10.63;;
42296;SDS011;28985;47.456;19.016;2022-07-12T10:14:37;12.38;;;11.48;;
42296;SDS011;28985;47.456;19.016;2022-07-12T10:17:06;11.98;;;11.57;;
42296;SDS011;28985;47.456;19.016;2022-07-12T10:19:35;11.45;;;11.05;;
42296;SDS011;28985;47.456;19.016;2022-07-12T10:22:03;14.23;;;13.52;;
42296;SDS011;28985;47.456;19.016;2022-07-12T10:32:20;13.40;;;12.90;;
42296;SDS011;28985;47.456;19.016;2022-07-12T10:34:57;12.38;;;11.98;;
42296;SDS011;28985;47.456;19.016;2022-07-12T10:37:33;14.65;;;13.75;;
42296;SDS011;28985;47.456;19.016;2022-07-12T10:40:14;14.45;;;13.77;;
42296;SDS011;28985;47.456;19.016;2022-07-12T10:45:31;13.15;;;12.55;;
42296;SDS011;28985;47.456;19.016;2022-07-12T10:48:00;13.50;;;13.00;;
42296;SDS011;28985;47.456;19.016;2022-07-12T10:53:19;18.60;;;17.90;;
42296;SDS011;28985;47.456;19.016;2022-07-12T10:56:06;15.70;;;14.65;;
42296;SDS011;28985;47.456;19.016;2022-07-12T11:01:12;26.33;;;24.05;;
42296;SDS011;28985;47.456;19.016;2022-07-12T11:03:50;40.00;;;38.33;;
42296;SDS011;28985;47.456;19.016;2022-07-12T11:06:19;41.83;;;40.05;;
42296;SDS011;28985;47.456;19.016;2022-07-12T11:11:25;55.83;;;53.53;;
42296;SDS011;28985;47.456;19.016;2022-07-12T11:13:56;61.80;;;59.53;;
42296;SDS011;28985;47.456;19.016;2022-07-12T11:16:26;44.08;;;42.28;;
42296;SDS011;28985;47.456;19.016;2022-07-12T11:18:53;31.55;;;30.35;;
42296;SDS011;28985;47.456;19.016;2022-07-12T11:21:22;24.13;;;23.15;;
42296;SDS011;28985;47.456;19.016;2022-07-12T11:23:50;18.33;;;17.63;;
42296;SDS011;28985;47.456;19.016;2022-07-12T11:26:17;15.90;;;15.05;;
42296;SDS011;28985;47.456;19.016;2022-07-12T11:28:44;8.02;;;7.72;;
42296;SDS011;28985;47.456;19.016;2022-07-12T11:31:12;6.85;;;6.65;;
42296;SDS011;28985;47.456;19.016;2022-07-12T11:33:44;7.95;;;7.60;;
42296;SDS011;28985;47.456;19.016;2022-07-12T11:36:13;6.85;;;6.55;;
42296;SDS011;28985;47.456;19.016;2022-07-12T11:38:41;6.25;;;5.90;;
42296;SDS011;28985;47.456;19.016;2022-07-12T11:41:10;7.38;;;7.07;;
42296;SDS011;28985;47.456;19.016;2022-07-12T11:43:38;7.07;;;6.55;;
42296;SDS011;28985;47.456;19.016;2022-07-12T11:46:06;5.05;;;4.85;;
42296;SDS011;28985;47.456;19.016;2022-07-12T11:48:34;5.18;;;4.97;;
42296;SDS011;28985;47.456;19.016;2022-07-12T11:51:02;6.35;;;5.93;;
42296;SDS011;28985;47.456;19.016;2022-07-12T11:53:31;7.45;;;7.25;;
42296;SDS011;28985;47.456;19.016;2022-07-12T11:55:59;10.43;;;10.02;;
42296;SDS011;28985;47.456;19.016;2022-07-12T11:58:27;13.43;;;12.82;;
42296;SDS011;28985;47.456;19.016;2022-07-12T12:00:55;13.00;;;12.40;;
42296;SDS011;28985;47.456;19.016;2022-07-12T12:03:23;14.65;;;14.15;;
42296;SDS011;28985;47.456;19.016;2022-07-12T12:05:54;13.75;;;13.25;;
42296;SDS011;28985;47.456;19.016;2022-07-12T12:08:22;14.63;;;14.02;;
42296;SDS011;28985;47.456;19.016;2022-07-12T12:10:57;16.80;;;15.82;;
42296;SDS011;28985;47.456;19.016;2022-07-12T12:13:25;17.38;;;16.58;;
42296;SDS011;28985;47.456;19.016;2022-07-12T12:15:54;14.80;;;14.20;;
42296;SDS011;28985;47.456;19.016;2022-07-12T12:18:28;15.85;;;15.13;;
42296;SDS011;28985;47.456;19.016;2022-07-12T12:20:57;17.10;;;16.00;;
42296;SDS011;28985;47.456;19.016;2022-07-12T12:23:25;16.50;;;15.85;;
42296;SDS011;28985;47.456;19.016;2022-07-12T12:25:52;18.77;;;18.08;;
42296;SDS011;28985;47.456;19.016;2022-07-12T12:28:21;18.88;;;18.17;;
42296;SDS011;28985;47.456;19.016;2022-07-12T12:30:51;20.98;;;20.17;;
42296;SDS011;28985;47.456;19.016;2022-07-12T12:36:23;20.50;;;19.80;;
42296;SDS011;28985;47.456;19.016;2022-07-12T12:38:54;27.35;;;26.25;;
42296;SDS011;28985;47.456;19.016;2022-07-12T12:41:25;34.08;;;32.75;;
42296;SDS011;28985;47.456;19.016;2022-07-12T12:44:00;33.10;;;31.60;;
42296;SDS011;28985;47.456;19.016;2022-07-12T12:49:46;43.65;;;41.85;;
42296;SDS011;28985;47.456;19.016;2022-07-12T12:52:22;47.08;;;45.28;;
42296;SDS011;28985;47.456;19.016;2022-07-12T12:54:49;50.22;;;48.22;;
42296;SDS011;28985;47.456;19.016;2022-07-12T12:57:16;49.80;;;47.80;;
42296;SDS011;28985;47.456;19.016;2022-07-12T12:59:42;53.55;;;51.60;;
42296;SDS011;28985;47.456;19.016;2022-07-12T13:02:09;63.55;;;60.95;;
42296;SDS011;28985;47.456;19.016;2022-07-12T13:04:36;51.33;;;49.40;;
42296;SDS011;28985;47.456;19.016;2022-07-12T13:07:04;47.78;;;45.85;;
42296;SDS011;28985;47.456;19.016;2022-07-12T13:09:38;57.58;;;55.45;;
42296;SDS011;28985;47.456;19.016;2022-07-12T13:12:05;52.95;;;50.95;;
42296;SDS011;28985;47.456;19.016;2022-07-12T13:14:32;50.47;;;48.63;;
42296;SDS011;28985;47.456;19.016;2022-07-12T13:16:58;47.38;;;45.67;;
42296;SDS011;28985;47.456;19.016;2022-07-12T13:19:25;44.92;;;43.33;;
42296;SDS011;28985;47.456;19.016;2022-07-12T13:21:52;42.35;;;40.75;;
42296;SDS011;28985;47.456;19.016;2022-07-12T13:24:18;46.67;;;45.08;;
42296;SDS011;28985;47.456;19.016;2022-07-12T13:26:45;49.13;;;47.40;;
42296;SDS011;28985;47.456;19.016;2022-07-12T13:29:13;44.42;;;42.72;;
42296;SDS011;28985;47.456;19.016;2022-07-12T13:31:40;42.80;;;41.00;;
42296;SDS011;28985;47.456;19.016;2022-07-12T13:34:08;43.80;;;42.22;;
42296;SDS011;28985;47.456;19.016;2022-07-12T13:36:34;41.63;;;40.13;;
42296;SDS011;28985;47.456;19.016;2022-07-12T13:39:01;44.30;;;42.78;;
42296;SDS011;28985;47.456;19.016;2022-07-12T13:41:47;44.15;;;42.60;;
42296;SDS011;28985;47.456;19.016;2022-07-12T13:44:14;47.55;;;45.85;;
42296;SDS011;28985;47.456;19.016;2022-07-12T13:46:47;41.07;;;39.47;;
42296;SDS011;28985;47.456;19.016;2022-07-12T13:49:14;46.65;;;44.85;;
42296;SDS011;28985;47.456;19.016;2022-07-12T13:51:40;45.10;;;43.50;;
42296;SDS011;28985;47.456;19.016;2022-07-12T13:54:07;44.92;;;43.30;;
42296;SDS011;28985;47.456;19.016;2022-07-12T13:56:34;42.85;;;41.15;;
42296;SDS011;28985;47.456;19.016;2022-07-12T13:59:01;45.10;;;43.50;;
42296;SDS011;28985;47.456;19.016;2022-07-12T14:01:28;45.45;;;43.67;;
42296;SDS011;28985;47.456;19.016;2022-07-12T14:03:55;44.00;;;42.40;;
42296;SDS011;28985;47.456;19.016;2022-07-12T14:06:22;45.88;;;44.28;;
42296;SDS011;28985;47.456;19.016;2022-07-12T14:08:50;46.85;;;45.22;;
42296;SDS011;28985;47.456;19.016;2022-07-12T14:11:19;41.75;;;39.85;;
42296;SDS011;28985;47.456;19.016;2022-07-12T14:13:46;45.92;;;44.33;;
42296;SDS011;28985;47.456;19.016;2022-07-12T14:16:13;44.30;;;42.60;;
42296;SDS011;28985;47.456;19.016;2022-07-12T14:18:40;47.08;;;45.38;;
42296;SDS011;28985;47.456;19.016;2022-07-12T14:21:07;45.70;;;44.10;;
42296;SDS011;28985;47.456;19.016;2022-07-12T14:23:34;46.95;;;45.25;;
42296;SDS011;28985;47.456;19.016;2022-07-12T14:26:01;48.80;;;47.00;;
42296;SDS011;28985;47.456;19.016;2022-07-12T14:28:28;52.67;;;50.78;;
42296;SDS011;28985;47.456;19.016;2022-07-12T14:30:55;52.50;;;50.50;;
42296;SDS011;28985;47.456;19.016;2022-07-12T14:33:22;53.90;;;51.85;;
42296;SDS011;28985;47.456;19.016;2022-07-12T14:35:51;51.22;;;49.35;;
42296;SDS011;28985;47.456;19.016;2022-07-12T14:38:17;50.53;;;48.53;;
42296;SDS011;28985;47.456;19.016;2022-07-12T14:40:44;49.20;;;47.40;;
42296;SDS011;28985;47.456;19.016;2022-07-12T14:43:10;49.17;;;47.45;;
42296;SDS011;28985;47.456;19.016;2022-07-12T14:45:37;52.67;;;50.67;;
42296;SDS011;28985;47.456;19.016;2022-07-12T14:48:04;49.90;;;48.05;;
42296;SDS011;28985;47.456;19.016;2022-07-12T14:50:31;48.85;;;46.85;;
42296;SDS011;28985;47.456;19.016;2022-07-12T14:52:57;49.60;;;47.78;;
42296;SDS011;28985;47.456;19.016;2022-07-12T14:55:24;50.15;;;48.13;;
42296;SDS011;28985;47.456;19.016;2022-07-12T14:57:51;48.45;;;46.50;;
42296;SDS011;28985;47.456;19.016;2022-07-12T15:00:17;48.53;;;46.80;;